RYR1972 LEVC-GCTS
Flight info
| Callsign | RYR1972 |
|---|---|
| Flight time | 2h 51m |
| Altitude | 37000 |
| Route | ASTRO M985 PIMOS N869 GALTO UN869 PELAX/N0453F390 UN869 RUSIK |
| Aircraft | B38M/M-SADE3FGILRWY/SB1 |
Departure
| Time | 2026-04-27 20:25 |
|---|---|
| Airport | Valencia Airport (LEVC) |
Arrival
| Time | 2026-04-27 23:17 |
|---|---|
| Airport | Tenerife Sur Airport (GCTS) |
| Time | Latitude | Longitude | Altitude | Speed | Heading |
|---|---|---|---|---|---|
| 2026-04-27 19:59 | 39.49028 | -0.47286 | 200 ft | 0 kts | 13° |
| 2026-04-27 20:17 | 39.49005 | -0.47293 | 197 ft | 4 kts | 13° |
| 2026-04-27 20:17 | 39.48985 | -0.47299 | 198 ft | 4 kts | 13° |
| 2026-04-27 20:17 | 39.48959 | -0.47308 | 193 ft | 4 kts | 22° |
| 2026-04-27 20:18 | 39.48942 | -0.47319 | 201 ft | 4 kts | 349° |
| 2026-04-27 20:18 | 39.48932 | -0.47304 | 195 ft | 3 kts | 296° |
| 2026-04-27 20:18 | 39.48921 | -0.47274 | 196 ft | 2 kts | 298° |
| 2026-04-27 20:18 | 39.48921 | -0.47273 | 196 ft | 0 kts | 298° |
| 2026-04-27 20:20 | 39.48923 | -0.47277 | 195 ft | 2 kts | 298° |
| 2026-04-27 20:20 | 39.48943 | -0.47332 | 202 ft | 12 kts | 296° |
| 2026-04-27 20:21 | 39.48988 | -0.47451 | 205 ft | 16 kts | 296° |
| 2026-04-27 20:21 | 39.49035 | -0.47578 | 207 ft | 16 kts | 297° |
| 2026-04-27 20:21 | 39.49050 | -0.47714 | 203 ft | 16 kts | 256° |
| 2026-04-27 20:21 | 39.49029 | -0.47880 | 205 ft | 22 kts | 277° |
| 2026-04-27 20:22 | 39.49107 | -0.48096 | 212 ft | 31 kts | 295° |
| 2026-04-27 20:22 | 39.49205 | -0.48353 | 218 ft | 33 kts | 296° |
| 2026-04-27 20:22 | 39.49293 | -0.48585 | 222 ft | 26 kts | 296° |
| 2026-04-27 20:22 | 39.49372 | -0.48795 | 223 ft | 26 kts | 296° |
| 2026-04-27 20:23 | 39.49451 | -0.49000 | 224 ft | 26 kts | 296° |
| 2026-04-27 20:23 | 39.49532 | -0.49211 | 227 ft | 26 kts | 296° |
| 2026-04-27 20:23 | 39.49611 | -0.49417 | 230 ft | 26 kts | 296° |
| 2026-04-27 20:23 | 39.49686 | -0.49616 | 237 ft | 24 kts | 296° |
| 2026-04-27 20:24 | 39.49759 | -0.49807 | 241 ft | 23 kts | 296° |
| 2026-04-27 20:24 | 39.49781 | -0.49960 | 247 ft | 15 kts | 214° |
| 2026-04-27 20:24 | 39.49690 | -0.50020 | 250 ft | 15 kts | 206° |
| 2026-04-27 20:24 | 39.49598 | -0.49913 | 244 ft | 40 kts | 116° |
| 2026-04-27 20:25 | 39.49357 | -0.49281 | 226 ft | 114 kts | 116° |
| 2026-04-27 20:25 | 39.48917 | -0.48127 | 237 ft | 166 kts | 118° |
| 2026-04-27 20:25 | 39.48375 | -0.46771 | 869 ft | 170 kts | 118° |
| 2026-04-27 20:25 | 39.47835 | -0.45412 | 1620 ft | 174 kts | 116° |
| 2026-04-27 20:26 | 39.47226 | -0.43930 | 2097 ft | 199 kts | 123° |
| 2026-04-27 20:26 | 39.46266 | -0.42551 | 2676 ft | 218 kts | 138° |
| 2026-04-27 20:26 | 39.45100 | -0.41279 | 3533 ft | 221 kts | 137° |
| 2026-04-27 20:26 | 39.44056 | -0.39784 | 4318 ft | 229 kts | 122° |
| 2026-04-27 20:27 | 39.43189 | -0.37992 | 5049 ft | 239 kts | 122° |
| 2026-04-27 20:27 | 39.42268 | -0.36224 | 5968 ft | 239 kts | 123° |
| 2026-04-27 20:27 | 39.41321 | -0.34431 | 6739 ft | 242 kts | 123° |
| 2026-04-27 20:27 | 39.40377 | -0.32646 | 7594 ft | 240 kts | 124° |
| 2026-04-27 20:28 | 39.39278 | -0.30985 | 8194 ft | 248 kts | 143° |
| 2026-04-27 20:28 | 39.37669 | -0.30268 | 8737 ft | 259 kts | 178° |
| 2026-04-27 20:28 | 39.35889 | -0.30870 | 9180 ft | 273 kts | 210° |
| 2026-04-27 20:28 | 39.34876 | -0.31896 | 9639 ft | 278 kts | 225° |
| 2026-04-27 20:29 | 39.33528 | -0.34744 | 10432 ft | 285 kts | 243° |
| 2026-04-27 20:29 | 39.32580 | -0.37031 | 10915 ft | 291 kts | 238° |
| 2026-04-27 20:29 | 39.31561 | -0.39294 | 11497 ft | 294 kts | 240° |
| 2026-04-27 20:29 | 39.30660 | -0.41737 | 11898 ft | 310 kts | 248° |
| 2026-04-27 20:30 | 39.30122 | -0.44454 | 12677 ft | 314 kts | 263° |
| 2026-04-27 20:30 | 39.30081 | -0.47250 | 13410 ft | 323 kts | 272° |
| 2026-04-27 20:30 | 39.30264 | -0.50213 | 13868 ft | 338 kts | 275° |
| 2026-04-27 20:30 | 39.30621 | -0.53247 | 14476 ft | 343 kts | 281° |
| 2026-04-27 20:31 | 39.31263 | -0.56227 | 15200 ft | 347 kts | 288° |
| 2026-04-27 20:31 | 39.32220 | -0.59113 | 15854 ft | 352 kts | 296° |
| 2026-04-27 20:31 | 39.33479 | -0.61845 | 16534 ft | 356 kts | 303° |
| 2026-04-27 20:31 | 39.34920 | -0.64466 | 17176 ft | 359 kts | 297° |
| 2026-04-27 20:32 | 39.35762 | -0.67479 | 17793 ft | 359 kts | 277° |
| 2026-04-27 20:32 | 39.35720 | -0.70646 | 18347 ft | 359 kts | 256° |
| 2026-04-27 20:32 | 39.34818 | -0.73640 | 18874 ft | 360 kts | 237° |
| 2026-04-27 20:32 | 39.33222 | -0.76118 | 19392 ft | 361 kts | 220° |
| 2026-04-27 20:33 | 39.31232 | -0.78106 | 19917 ft | 363 kts | 221° |
| 2026-04-27 20:33 | 39.29576 | -0.80577 | 20435 ft | 366 kts | 234° |
| 2026-04-27 20:33 | 39.28045 | -0.83223 | 20914 ft | 370 kts | 232° |
| 2026-04-27 20:33 | 39.26484 | -0.85876 | 21457 ft | 372 kts | 232° |
| 2026-04-27 20:34 | 39.24904 | -0.88539 | 21973 ft | 375 kts | 232° |
| 2026-04-27 20:34 | 39.23314 | -0.91224 | 22490 ft | 378 kts | 232° |
| 2026-04-27 20:34 | 39.21712 | -0.93929 | 23005 ft | 381 kts | 232° |
| 2026-04-27 20:34 | 39.20118 | -0.96619 | 23510 ft | 384 kts | 232° |
| 2026-04-27 20:35 | 39.18489 | -0.99365 | 23968 ft | 387 kts | 232° |
| 2026-04-27 20:35 | 39.16850 | -1.02127 | 24396 ft | 390 kts | 232° |
| 2026-04-27 20:35 | 39.15197 | -1.04909 | 24831 ft | 392 kts | 232° |
| 2026-04-27 20:35 | 39.13534 | -1.07705 | 25249 ft | 395 kts | 232° |
| 2026-04-27 20:36 | 39.11860 | -1.10518 | 25668 ft | 397 kts | 233° |
| 2026-04-27 20:36 | 39.10175 | -1.13347 | 26075 ft | 399 kts | 233° |
| 2026-04-27 20:36 | 39.08476 | -1.16196 | 26479 ft | 402 kts | 232° |
| 2026-04-27 20:36 | 39.06769 | -1.19057 | 26888 ft | 404 kts | 232° |
| 2026-04-27 20:37 | 39.05050 | -1.21934 | 27280 ft | 407 kts | 232° |
| 2026-04-27 20:37 | 39.03343 | -1.24791 | 27660 ft | 409 kts | 232° |
| 2026-04-27 20:37 | 39.01602 | -1.27700 | 28038 ft | 412 kts | 232° |
| 2026-04-27 20:37 | 38.99848 | -1.30626 | 28417 ft | 414 kts | 232° |
| 2026-04-27 20:38 | 38.98085 | -1.33566 | 28798 ft | 417 kts | 232° |
| 2026-04-27 20:38 | 38.96311 | -1.36521 | 29148 ft | 419 kts | 232° |
| 2026-04-27 20:38 | 38.94524 | -1.39496 | 29507 ft | 421 kts | 232° |
| 2026-04-27 20:38 | 38.92728 | -1.42482 | 29849 ft | 424 kts | 232° |
| 2026-04-27 20:39 | 38.90921 | -1.45485 | 30179 ft | 426 kts | 232° |
| 2026-04-27 20:39 | 38.89102 | -1.48504 | 30471 ft | 428 kts | 232° |
| 2026-04-27 20:39 | 38.87275 | -1.51532 | 30774 ft | 430 kts | 232° |
| 2026-04-27 20:39 | 38.85463 | -1.54534 | 31079 ft | 432 kts | 232° |
| 2026-04-27 20:40 | 38.83621 | -1.57583 | 31390 ft | 433 kts | 232° |
| 2026-04-27 20:40 | 38.81770 | -1.60644 | 31685 ft | 435 kts | 232° |
| 2026-04-27 20:40 | 38.79913 | -1.63712 | 31975 ft | 437 kts | 232° |
| 2026-04-27 20:40 | 38.78045 | -1.66796 | 32255 ft | 438 kts | 232° |
| 2026-04-27 20:41 | 38.76171 | -1.69885 | 32546 ft | 440 kts | 231° |
| 2026-04-27 20:41 | 38.74288 | -1.72987 | 32831 ft | 442 kts | 231° |
| 2026-04-27 20:41 | 38.72401 | -1.76093 | 33188 ft | 441 kts | 231° |
| 2026-04-27 20:41 | 38.70542 | -1.79146 | 33580 ft | 440 kts | 231° |
| 2026-04-27 20:42 | 38.68665 | -1.82228 | 33974 ft | 439 kts | 231° |
| 2026-04-27 20:42 | 38.66788 | -1.85308 | 34318 ft | 438 kts | 231° |
| 2026-04-27 20:42 | 38.64917 | -1.88374 | 34648 ft | 436 kts | 231° |
| 2026-04-27 20:42 | 38.63052 | -1.91426 | 34989 ft | 435 kts | 231° |
| 2026-04-27 20:43 | 38.61191 | -1.94470 | 35328 ft | 433 kts | 231° |
| 2026-04-27 20:43 | 38.59339 | -1.97496 | 35660 ft | 431 kts | 231° |
| 2026-04-27 20:43 | 38.57493 | -2.00509 | 35964 ft | 430 kts | 231° |
| 2026-04-27 20:43 | 38.55652 | -2.03513 | 36254 ft | 429 kts | 232° |
| 2026-04-27 20:44 | 38.53838 | -2.06469 | 36528 ft | 428 kts | 232° |
| 2026-04-27 20:44 | 38.52006 | -2.09450 | 36822 ft | 426 kts | 232° |
| 2026-04-27 20:44 | 38.50178 | -2.12425 | 37089 ft | 425 kts | 232° |
| 2026-04-27 20:44 | 38.48352 | -2.15393 | 37330 ft | 424 kts | 232° |
| 2026-04-27 20:45 | 38.46535 | -2.18346 | 37579 ft | 423 kts | 232° |
| 2026-04-27 20:45 | 38.44717 | -2.21296 | 37815 ft | 422 kts | 232° |
| 2026-04-27 20:45 | 38.42903 | -2.24237 | 38051 ft | 421 kts | 232° |
| 2026-04-27 20:45 | 38.41091 | -2.27172 | 38282 ft | 420 kts | 232° |
| 2026-04-27 20:46 | 38.39284 | -2.30097 | 38483 ft | 420 kts | 232° |
| 2026-04-27 20:46 | 38.37505 | -2.32972 | 38675 ft | 419 kts | 232° |
| 2026-04-27 20:46 | 38.35625 | -2.35802 | 38821 ft | 418 kts | 225° |
| 2026-04-27 20:46 | 38.33590 | -2.38446 | 38970 ft | 417 kts | 226° |
| 2026-04-27 20:47 | 38.31587 | -2.41114 | 39074 ft | 417 kts | 227° |
| 2026-04-27 20:47 | 38.29586 | -2.43800 | 39091 ft | 419 kts | 227° |
| 2026-04-27 20:47 | 38.25557 | -2.49227 | 39078 ft | 424 kts | 227° |
| 2026-04-27 20:48 | 38.21511 | -2.54672 | 39066 ft | 429 kts | 227° |
| 2026-04-27 20:48 | 38.17391 | -2.60209 | 39045 ft | 433 kts | 227° |
| 2026-04-27 20:49 | 38.13238 | -2.65780 | 39053 ft | 435 kts | 227° |
| 2026-04-27 20:49 | 38.09058 | -2.71376 | 39054 ft | 438 kts | 226° |
| 2026-04-27 20:50 | 38.04888 | -2.76950 | 39038 ft | 439 kts | 226° |
| 2026-04-27 20:50 | 38.00671 | -2.82578 | 39026 ft | 440 kts | 226° |
| 2026-04-27 20:51 | 37.96448 | -2.88204 | 39044 ft | 441 kts | 226° |
| 2026-04-27 20:51 | 37.92195 | -2.93828 | 39024 ft | 442 kts | 226° |
| 2026-04-27 20:52 | 37.87936 | -2.99453 | 39020 ft | 443 kts | 226° |
| 2026-04-27 20:52 | 37.83696 | -3.05043 | 39025 ft | 444 kts | 226° |
| 2026-04-27 20:53 | 37.79415 | -3.10676 | 39008 ft | 444 kts | 226° |
| 2026-04-27 20:53 | 37.75135 | -3.16300 | 39015 ft | 444 kts | 226° |
| 2026-04-27 20:54 | 37.68709 | -3.24721 | 39005 ft | 443 kts | 226° |
| 2026-04-27 20:55 | 37.64455 | -3.30285 | 39007 ft | 443 kts | 226° |
| 2026-04-27 20:55 | 37.60168 | -3.35882 | 39004 ft | 444 kts | 226° |
| 2026-04-27 20:56 | 37.55877 | -3.41475 | 39019 ft | 444 kts | 225° |
| 2026-04-27 20:56 | 37.51578 | -3.47067 | 39019 ft | 445 kts | 225° |
| 2026-04-27 20:57 | 37.47302 | -3.52620 | 39000 ft | 445 kts | 225° |
| 2026-04-27 20:57 | 37.42989 | -3.58212 | 39001 ft | 445 kts | 225° |
| 2026-04-27 20:58 | 37.38674 | -3.63796 | 39006 ft | 445 kts | 225° |
| 2026-04-27 20:58 | 37.34357 | -3.69372 | 38995 ft | 445 kts | 225° |
| 2026-04-27 20:59 | 37.30065 | -3.74906 | 38992 ft | 445 kts | 225° |
| 2026-04-27 20:59 | 37.25741 | -3.80473 | 38995 ft | 445 kts | 225° |
| 2026-04-27 21:00 | 37.21410 | -3.86038 | 38991 ft | 446 kts | 225° |
| 2026-04-27 21:00 | 37.17076 | -3.91597 | 38992 ft | 446 kts | 225° |
| 2026-04-27 21:01 | 37.12740 | -3.97150 | 38997 ft | 446 kts | 225° |
| 2026-04-27 21:01 | 37.08431 | -4.02658 | 38996 ft | 446 kts | 225° |
| 2026-04-27 21:02 | 37.04087 | -4.08202 | 38999 ft | 446 kts | 225° |
| 2026-04-27 21:02 | 36.99738 | -4.13742 | 39002 ft | 446 kts | 225° |
| 2026-04-27 21:03 | 36.95385 | -4.19278 | 39005 ft | 446 kts | 225° |
| 2026-04-27 21:03 | 36.91058 | -4.24770 | 39004 ft | 447 kts | 224° |
| 2026-04-27 21:04 | 36.86696 | -4.30298 | 39013 ft | 447 kts | 224° |
| 2026-04-27 21:04 | 36.82324 | -4.35823 | 39018 ft | 447 kts | 223° |
| 2026-04-27 21:04 | 36.79868 | -4.38171 | 39009 ft | 445 kts | 211° |
| 2026-04-27 21:05 | 36.77251 | -4.40233 | 39006 ft | 446 kts | 213° |
| 2026-04-27 21:05 | 36.72073 | -4.44403 | 39021 ft | 446 kts | 212° |
| 2026-04-27 21:06 | 36.66844 | -4.48560 | 39021 ft | 446 kts | 212° |
| 2026-04-27 21:06 | 36.61603 | -4.52717 | 39019 ft | 447 kts | 212° |
| 2026-04-27 21:07 | 36.56351 | -4.56875 | 39023 ft | 448 kts | 212° |
| 2026-04-27 21:07 | 36.51092 | -4.61031 | 39013 ft | 449 kts | 212° |
| 2026-04-27 21:08 | 36.45852 | -4.65166 | 39013 ft | 449 kts | 212° |
| 2026-04-27 21:08 | 36.40570 | -4.69327 | 39007 ft | 450 kts | 212° |
| 2026-04-27 21:09 | 36.35286 | -4.73483 | 39010 ft | 450 kts | 212° |
| 2026-04-27 21:09 | 36.29997 | -4.77636 | 39007 ft | 450 kts | 212° |
| 2026-04-27 21:10 | 36.24744 | -4.81754 | 39002 ft | 450 kts | 212° |
| 2026-04-27 21:10 | 36.19451 | -4.85898 | 39002 ft | 450 kts | 212° |
| 2026-04-27 21:11 | 36.14165 | -4.90050 | 38995 ft | 450 kts | 212° |
| 2026-04-27 21:11 | 36.08896 | -4.94223 | 38998 ft | 450 kts | 212° |
| 2026-04-27 21:12 | 36.03658 | -4.98362 | 38999 ft | 450 kts | 212° |
| 2026-04-27 21:12 | 35.98379 | -5.02527 | 38997 ft | 450 kts | 212° |
| 2026-04-27 21:13 | 35.93099 | -5.06686 | 38995 ft | 450 kts | 212° |
| 2026-04-27 21:13 | 35.87818 | -5.10839 | 38993 ft | 450 kts | 212° |
| 2026-04-27 21:14 | 35.82602 | -5.15113 | 38973 ft | 451 kts | 217° |
| 2026-04-27 21:14 | 35.77660 | -5.19775 | 38972 ft | 451 kts | 216° |
| 2026-04-27 21:15 | 35.72646 | -5.24402 | 38968 ft | 451 kts | 216° |
| 2026-04-27 21:15 | 35.67622 | -5.29020 | 38966 ft | 451 kts | 216° |
| 2026-04-27 21:16 | 35.62629 | -5.33602 | 38970 ft | 451 kts | 216° |
| 2026-04-27 21:16 | 35.57603 | -5.38206 | 38964 ft | 451 kts | 216° |
| 2026-04-27 21:17 | 35.52574 | -5.42806 | 38960 ft | 451 kts | 216° |
| 2026-04-27 21:17 | 35.47548 | -5.47395 | 38962 ft | 450 kts | 216° |
| 2026-04-27 21:18 | 35.42517 | -5.51983 | 38929 ft | 450 kts | 216° |
| 2026-04-27 21:18 | 35.37528 | -5.56525 | 38907 ft | 450 kts | 216° |
| 2026-04-27 21:19 | 35.32496 | -5.61098 | 38895 ft | 451 kts | 216° |
| 2026-04-27 21:19 | 35.27450 | -5.65677 | 38842 ft | 451 kts | 216° |
| 2026-04-27 21:20 | 35.19876 | -5.72536 | 38847 ft | 452 kts | 216° |
| 2026-04-27 21:20 | 35.14845 | -5.77083 | 38841 ft | 453 kts | 216° |
| 2026-04-27 21:21 | 35.09771 | -5.81662 | 38802 ft | 454 kts | 216° |
| 2026-04-27 21:21 | 35.04688 | -5.86242 | 38799 ft | 454 kts | 216° |
| 2026-04-27 21:22 | 34.99607 | -5.90813 | 38799 ft | 454 kts | 216° |
| 2026-04-27 21:22 | 34.94554 | -5.95351 | 38785 ft | 454 kts | 216° |
| 2026-04-27 21:23 | 34.89469 | -5.99911 | 38782 ft | 454 kts | 216° |
| 2026-04-27 21:23 | 34.84380 | -6.04467 | 38784 ft | 454 kts | 216° |
| 2026-04-27 21:24 | 34.79293 | -6.09014 | 38779 ft | 454 kts | 216° |
| 2026-04-27 21:24 | 34.74244 | -6.13521 | 38779 ft | 453 kts | 216° |
| 2026-04-27 21:25 | 34.69159 | -6.18052 | 38779 ft | 453 kts | 216° |
| 2026-04-27 21:25 | 34.64077 | -6.22574 | 38779 ft | 453 kts | 216° |
| 2026-04-27 21:26 | 34.58996 | -6.27087 | 38779 ft | 452 kts | 216° |
| 2026-04-27 21:26 | 34.53919 | -6.31591 | 38792 ft | 452 kts | 216° |
| 2026-04-27 21:27 | 34.48885 | -6.36049 | 38782 ft | 451 kts | 216° |
| 2026-04-27 21:27 | 34.43821 | -6.40527 | 38788 ft | 450 kts | 216° |
| 2026-04-27 21:28 | 34.38760 | -6.44996 | 38790 ft | 450 kts | 216° |
| 2026-04-27 21:28 | 34.33698 | -6.49458 | 38793 ft | 450 kts | 216° |
| 2026-04-27 21:29 | 34.28691 | -6.53866 | 38807 ft | 439 kts | 216° |
| 2026-04-27 21:29 | 34.26262 | -6.56001 | 38817 ft | 426 kts | 216° |
| 2026-04-27 21:29 | 34.23877 | -6.58096 | 38819 ft | 423 kts | 216° |
| 2026-04-27 21:30 | 34.19123 | -6.62270 | 38822 ft | 423 kts | 216° |
| 2026-04-27 21:30 | 34.14359 | -6.66447 | 38829 ft | 423 kts | 216° |
| 2026-04-27 21:31 | 34.09630 | -6.70587 | 38829 ft | 423 kts | 216° |
| 2026-04-27 21:31 | 34.04845 | -6.74725 | 38828 ft | 423 kts | 214° |
| 2026-04-27 21:32 | 33.99971 | -6.78715 | 38831 ft | 424 kts | 214° |
| 2026-04-27 21:32 | 33.95085 | -6.82733 | 38830 ft | 425 kts | 214° |
| 2026-04-27 21:33 | 33.90193 | -6.86753 | 38841 ft | 426 kts | 214° |
| 2026-04-27 21:33 | 33.85331 | -6.90744 | 38838 ft | 426 kts | 214° |
| 2026-04-27 21:34 | 33.80432 | -6.94759 | 38846 ft | 426 kts | 214° |
| 2026-04-27 21:34 | 33.75534 | -6.98768 | 38841 ft | 426 kts | 214° |
| 2026-04-27 21:35 | 33.70628 | -7.02778 | 38892 ft | 426 kts | 213° |
| 2026-04-27 21:35 | 33.65756 | -7.06754 | 38903 ft | 426 kts | 213° |
| 2026-04-27 21:36 | 33.60851 | -7.10752 | 38909 ft | 426 kts | 213° |
| 2026-04-27 21:36 | 33.55939 | -7.14750 | 38908 ft | 426 kts | 213° |
| 2026-04-27 21:37 | 33.51030 | -7.18740 | 38904 ft | 426 kts | 213° |
| 2026-04-27 21:37 | 33.46145 | -7.22703 | 38913 ft | 427 kts | 214° |
| 2026-04-27 21:38 | 33.41197 | -7.26715 | 38907 ft | 432 kts | 214° |
| 2026-04-27 21:38 | 33.36211 | -7.30750 | 38913 ft | 432 kts | 214° |
| 2026-04-27 21:39 | 33.31230 | -7.34776 | 38912 ft | 432 kts | 214° |
| 2026-04-27 21:39 | 33.26252 | -7.38793 | 38911 ft | 432 kts | 214° |
| 2026-04-27 21:40 | 33.21300 | -7.42785 | 38924 ft | 432 kts | 214° |
| 2026-04-27 21:40 | 33.16316 | -7.46797 | 38934 ft | 432 kts | 214° |
| 2026-04-27 21:41 | 33.11297 | -7.50746 | 38945 ft | 432 kts | 210° |
| 2026-04-27 21:41 | 33.06109 | -7.54373 | 38948 ft | 432 kts | 211° |
| 2026-04-27 21:42 | 33.00980 | -7.58006 | 38945 ft | 432 kts | 211° |
| 2026-04-27 21:42 | 32.95812 | -7.61670 | 38946 ft | 432 kts | 211° |
| 2026-04-27 21:43 | 32.90650 | -7.65323 | 38942 ft | 432 kts | 211° |
| 2026-04-27 21:43 | 32.85499 | -7.68959 | 38940 ft | 430 kts | 211° |
| 2026-04-27 21:44 | 32.80342 | -7.72570 | 38940 ft | 430 kts | 211° |
| 2026-04-27 21:44 | 32.75222 | -7.76153 | 38938 ft | 430 kts | 211° |
| 2026-04-27 21:45 | 32.70065 | -7.79757 | 38931 ft | 430 kts | 211° |
| 2026-04-27 21:45 | 32.64911 | -7.83355 | 38932 ft | 430 kts | 211° |
| 2026-04-27 21:46 | 32.59769 | -7.86938 | 38930 ft | 426 kts | 211° |
| 2026-04-27 21:46 | 32.54705 | -7.90463 | 38926 ft | 425 kts | 211° |
| 2026-04-27 21:47 | 32.49600 | -7.94012 | 38930 ft | 425 kts | 211° |
| 2026-04-27 21:47 | 32.44491 | -7.97559 | 38928 ft | 425 kts | 211° |
| 2026-04-27 21:48 | 32.39386 | -8.01098 | 38925 ft | 425 kts | 211° |
| 2026-04-27 21:48 | 32.34313 | -8.04610 | 38910 ft | 426 kts | 211° |
| 2026-04-27 21:49 | 32.29177 | -8.08162 | 38932 ft | 429 kts | 211° |
| 2026-04-27 21:49 | 32.24027 | -8.11718 | 38922 ft | 428 kts | 211° |
| 2026-04-27 21:50 | 32.18881 | -8.15267 | 38919 ft | 428 kts | 211° |
| 2026-04-27 21:50 | 32.13732 | -8.18814 | 38922 ft | 429 kts | 210° |
| 2026-04-27 21:51 | 32.08589 | -8.22275 | 38927 ft | 429 kts | 210° |
| 2026-04-27 21:51 | 32.03406 | -8.25757 | 38924 ft | 428 kts | 211° |
| 2026-04-27 21:52 | 31.98228 | -8.29232 | 38923 ft | 428 kts | 211° |
| 2026-04-27 21:52 | 31.93047 | -8.32705 | 38925 ft | 428 kts | 211° |
| 2026-04-27 21:53 | 31.87897 | -8.36153 | 38923 ft | 430 kts | 211° |
| 2026-04-27 21:53 | 31.82682 | -8.39639 | 38931 ft | 432 kts | 210° |
| 2026-04-27 21:54 | 31.77457 | -8.43129 | 38928 ft | 431 kts | 211° |
| 2026-04-27 21:54 | 31.72249 | -8.46601 | 38929 ft | 430 kts | 211° |
| 2026-04-27 21:55 | 31.67044 | -8.50067 | 38933 ft | 430 kts | 211° |
| 2026-04-27 21:55 | 31.61876 | -8.53505 | 38934 ft | 430 kts | 211° |
| 2026-04-27 21:56 | 31.54062 | -8.58693 | 38937 ft | 430 kts | 210° |
| 2026-04-27 21:57 | 31.48854 | -8.62146 | 38935 ft | 430 kts | 211° |
| 2026-04-27 21:57 | 31.43653 | -8.65589 | 38939 ft | 429 kts | 211° |
| 2026-04-27 21:58 | 31.38494 | -8.69000 | 38940 ft | 429 kts | 211° |
| 2026-04-27 21:58 | 31.33296 | -8.72433 | 38935 ft | 429 kts | 211° |
| 2026-04-27 21:59 | 31.28084 | -8.75871 | 38945 ft | 431 kts | 211° |
| 2026-04-27 21:59 | 31.22896 | -8.79288 | 38941 ft | 431 kts | 211° |
| 2026-04-27 22:00 | 31.17683 | -8.82718 | 38941 ft | 429 kts | 211° |
| 2026-04-27 22:00 | 31.12484 | -8.86134 | 38950 ft | 429 kts | 211° |
| 2026-04-27 22:01 | 31.07290 | -8.89542 | 38953 ft | 428 kts | 211° |
| 2026-04-27 22:01 | 31.02090 | -8.92950 | 38951 ft | 429 kts | 211° |
| 2026-04-27 22:02 | 30.96924 | -8.96331 | 38951 ft | 429 kts | 211° |
| 2026-04-27 22:02 | 30.91721 | -8.99733 | 38945 ft | 429 kts | 211° |
| 2026-04-27 22:03 | 30.86535 | -9.03119 | 38947 ft | 426 kts | 211° |
| 2026-04-27 22:03 | 30.81362 | -9.06492 | 38954 ft | 427 kts | 211° |
| 2026-04-27 22:04 | 30.76218 | -9.09843 | 38949 ft | 426 kts | 212° |
| 2026-04-27 22:04 | 30.71040 | -9.13210 | 38944 ft | 426 kts | 212° |
| 2026-04-27 22:05 | 30.65865 | -9.16572 | 38952 ft | 426 kts | 211° |
| 2026-04-27 22:05 | 30.60690 | -9.19931 | 38942 ft | 426 kts | 212° |
| 2026-04-27 22:06 | 30.55547 | -9.23263 | 38947 ft | 426 kts | 212° |
| 2026-04-27 22:06 | 30.50373 | -9.26613 | 38947 ft | 426 kts | 212° |
| 2026-04-27 22:07 | 30.45195 | -9.29961 | 38947 ft | 426 kts | 212° |
| 2026-04-27 22:07 | 30.40014 | -9.33307 | 38948 ft | 426 kts | 212° |
| 2026-04-27 22:08 | 30.34894 | -9.36666 | 38940 ft | 424 kts | 218° |
| 2026-04-27 22:08 | 30.32722 | -9.38914 | 38961 ft | 417 kts | 233° |
| 2026-04-27 22:08 | 30.31173 | -9.41727 | 38979 ft | 415 kts | 243° |
| 2026-04-27 22:09 | 30.28570 | -9.47729 | 38964 ft | 418 kts | 245° |
| 2026-04-27 22:09 | 30.26097 | -9.53824 | 38966 ft | 419 kts | 246° |
| 2026-04-27 22:10 | 30.23679 | -9.59904 | 38963 ft | 419 kts | 246° |
| 2026-04-27 22:10 | 30.21251 | -9.66024 | 38961 ft | 419 kts | 246° |
| 2026-04-27 22:11 | 30.18822 | -9.72140 | 38971 ft | 419 kts | 246° |
| 2026-04-27 22:11 | 30.16389 | -9.78257 | 38971 ft | 419 kts | 246° |
| 2026-04-27 22:12 | 30.13955 | -9.84367 | 38985 ft | 419 kts | 246° |
| 2026-04-27 22:12 | 30.11531 | -9.90440 | 38985 ft | 419 kts | 246° |
| 2026-04-27 22:13 | 30.09090 | -9.96546 | 38987 ft | 419 kts | 246° |
| 2026-04-27 22:13 | 30.06644 | -10.02654 | 38994 ft | 419 kts | 246° |
| 2026-04-27 22:14 | 30.04197 | -10.08755 | 38996 ft | 419 kts | 246° |
| 2026-04-27 22:14 | 30.01763 | -10.14813 | 38998 ft | 419 kts | 246° |
| 2026-04-27 22:15 | 29.99312 | -10.20907 | 38995 ft | 418 kts | 246° |
| 2026-04-27 22:15 | 29.96862 | -10.26984 | 38999 ft | 417 kts | 246° |
| 2026-04-27 22:16 | 29.94413 | -10.33049 | 39004 ft | 417 kts | 246° |
| 2026-04-27 22:16 | 29.91961 | -10.39113 | 38997 ft | 417 kts | 246° |
| 2026-04-27 22:17 | 29.89523 | -10.45133 | 39008 ft | 417 kts | 246° |
| 2026-04-27 22:17 | 29.87065 | -10.51192 | 39005 ft | 417 kts | 246° |
| 2026-04-27 22:18 | 29.84605 | -10.57245 | 39001 ft | 417 kts | 246° |
| 2026-04-27 22:18 | 29.82143 | -10.63296 | 39012 ft | 417 kts | 247° |
| 2026-04-27 22:19 | 29.79697 | -10.69297 | 39014 ft | 417 kts | 247° |
| 2026-04-27 22:19 | 29.77231 | -10.75336 | 39010 ft | 417 kts | 247° |
| 2026-04-27 22:20 | 29.74764 | -10.81369 | 39012 ft | 417 kts | 247° |
| 2026-04-27 22:20 | 29.72292 | -10.87403 | 39018 ft | 417 kts | 247° |
| 2026-04-27 22:21 | 29.69834 | -10.93395 | 39026 ft | 417 kts | 247° |
| 2026-04-27 22:21 | 29.67359 | -10.99417 | 39023 ft | 416 kts | 247° |
| 2026-04-27 22:22 | 29.64882 | -11.05434 | 39005 ft | 416 kts | 247° |
| 2026-04-27 22:22 | 29.62414 | -11.11423 | 39017 ft | 413 kts | 248° |
| 2026-04-27 22:23 | 29.59972 | -11.17338 | 39031 ft | 413 kts | 248° |
| 2026-04-27 22:23 | 29.57509 | -11.23294 | 39029 ft | 412 kts | 248° |
| 2026-04-27 22:24 | 29.55045 | -11.29242 | 39020 ft | 413 kts | 247° |
| 2026-04-27 22:24 | 29.52577 | -11.35194 | 39032 ft | 413 kts | 248° |
| 2026-04-27 22:25 | 29.50118 | -11.41111 | 39029 ft | 413 kts | 248° |
| 2026-04-27 22:25 | 29.47641 | -11.47065 | 39031 ft | 413 kts | 248° |
| 2026-04-27 22:26 | 29.45163 | -11.53011 | 39031 ft | 413 kts | 248° |
| 2026-04-27 22:26 | 29.42679 | -11.58961 | 39031 ft | 413 kts | 248° |
| 2026-04-27 22:27 | 29.40210 | -11.64866 | 39037 ft | 413 kts | 248° |
| 2026-04-27 22:27 | 29.37723 | -11.70808 | 39034 ft | 413 kts | 248° |
| 2026-04-27 22:28 | 29.35232 | -11.76747 | 39038 ft | 413 kts | 248° |
| 2026-04-27 22:28 | 29.32740 | -11.82680 | 39039 ft | 413 kts | 248° |
| 2026-04-27 22:29 | 29.30245 | -11.88612 | 39040 ft | 413 kts | 247° |
| 2026-04-27 22:29 | 29.27765 | -11.94499 | 39038 ft | 412 kts | 248° |
| 2026-04-27 22:30 | 29.25280 | -12.00389 | 39039 ft | 410 kts | 248° |
| 2026-04-27 22:30 | 29.22796 | -12.06269 | 39034 ft | 410 kts | 248° |
| 2026-04-27 22:31 | 29.20308 | -12.12146 | 39047 ft | 410 kts | 248° |
| 2026-04-27 22:31 | 29.17836 | -12.17978 | 39045 ft | 410 kts | 248° |
| 2026-04-27 22:32 | 29.15342 | -12.23853 | 39045 ft | 410 kts | 248° |
| 2026-04-27 22:32 | 29.12847 | -12.29722 | 39044 ft | 410 kts | 248° |
| 2026-04-27 22:33 | 29.10350 | -12.35586 | 39050 ft | 410 kts | 248° |
| 2026-04-27 22:33 | 29.07851 | -12.41448 | 39042 ft | 410 kts | 248° |
| 2026-04-27 22:34 | 29.05363 | -12.47274 | 39050 ft | 411 kts | 248° |
| 2026-04-27 22:34 | 29.02851 | -12.53148 | 39054 ft | 411 kts | 248° |
| 2026-04-27 22:35 | 29.00340 | -12.59015 | 39055 ft | 411 kts | 248° |
| 2026-04-27 22:35 | 28.97824 | -12.64883 | 39057 ft | 411 kts | 248° |
| 2026-04-27 22:36 | 28.95323 | -12.70706 | 39060 ft | 411 kts | 248° |
| 2026-04-27 22:36 | 28.92802 | -12.76569 | 39060 ft | 411 kts | 248° |
| 2026-04-27 22:37 | 28.90213 | -12.82375 | 39051 ft | 411 kts | 245° |
| 2026-04-27 22:37 | 28.87423 | -12.88068 | 39056 ft | 411 kts | 245° |
| 2026-04-27 22:38 | 28.84677 | -12.93727 | 39061 ft | 411 kts | 245° |
| 2026-04-27 22:38 | 28.81911 | -12.99426 | 39061 ft | 411 kts | 245° |
| 2026-04-27 22:39 | 28.79142 | -13.05125 | 39058 ft | 411 kts | 245° |
| 2026-04-27 22:39 | 28.76372 | -13.10820 | 39060 ft | 411 kts | 245° |
| 2026-04-27 22:40 | 28.73619 | -13.16470 | 39054 ft | 411 kts | 245° |
| 2026-04-27 22:40 | 28.70838 | -13.22170 | 39066 ft | 412 kts | 245° |
| 2026-04-27 22:41 | 28.68054 | -13.27869 | 39064 ft | 412 kts | 245° |
| 2026-04-27 22:41 | 28.65266 | -13.33568 | 39066 ft | 412 kts | 245° |
| 2026-04-27 22:42 | 28.62949 | -13.38298 | 39063 ft | 412 kts | 245° |
| 2026-04-27 22:42 | 28.59705 | -13.44911 | 39064 ft | 412 kts | 245° |
| 2026-04-27 22:43 | 28.56912 | -13.50597 | 39053 ft | 412 kts | 245° |
| 2026-04-27 22:43 | 28.54121 | -13.56271 | 39063 ft | 411 kts | 245° |
| 2026-04-27 22:44 | 28.51802 | -13.60980 | 39068 ft | 410 kts | 245° |
| 2026-04-27 22:44 | 28.48556 | -13.67561 | 39073 ft | 411 kts | 245° |
| 2026-04-27 22:45 | 28.45760 | -13.73221 | 39075 ft | 411 kts | 245° |
| 2026-04-27 22:45 | 28.43435 | -13.77921 | 39075 ft | 411 kts | 245° |
| 2026-04-27 22:46 | 28.40635 | -13.83577 | 39074 ft | 411 kts | 245° |
| 2026-04-27 22:46 | 28.37379 | -13.90143 | 39071 ft | 411 kts | 245° |
| 2026-04-27 22:47 | 28.35026 | -13.94881 | 39084 ft | 411 kts | 245° |
| 2026-04-27 22:47 | 28.32235 | -14.00495 | 39078 ft | 411 kts | 245° |
| 2026-04-27 22:48 | 28.29422 | -14.06144 | 39075 ft | 411 kts | 245° |
| 2026-04-27 22:48 | 28.26607 | -14.11790 | 39078 ft | 411 kts | 245° |
| 2026-04-27 22:49 | 28.23788 | -14.17437 | 39087 ft | 411 kts | 245° |
| 2026-04-27 22:49 | 28.20985 | -14.23044 | 39075 ft | 411 kts | 245° |
| 2026-04-27 22:50 | 28.18172 | -14.28664 | 39071 ft | 409 kts | 245° |
| 2026-04-27 22:50 | 28.15362 | -14.34270 | 39080 ft | 409 kts | 245° |
| 2026-04-27 22:51 | 28.12551 | -14.39870 | 39086 ft | 409 kts | 245° |
| 2026-04-27 22:51 | 28.09755 | -14.45433 | 39087 ft | 409 kts | 245° |
| 2026-04-27 22:52 | 28.06939 | -14.51031 | 39083 ft | 409 kts | 245° |
| 2026-04-27 22:52 | 28.04121 | -14.56627 | 39086 ft | 409 kts | 245° |
| 2026-04-27 22:53 | 28.01301 | -14.62217 | 39085 ft | 409 kts | 245° |
| 2026-04-27 22:53 | 28.00083 | -14.65051 | 39071 ft | 401 kts | 257° |
| 2026-04-27 22:53 | 27.99384 | -14.68126 | 39104 ft | 399 kts | 258° |
| 2026-04-27 22:54 | 27.97989 | -14.74183 | 39093 ft | 400 kts | 259° |
| 2026-04-27 22:54 | 27.96643 | -14.80300 | 39093 ft | 401 kts | 259° |
| 2026-04-27 22:55 | 27.95314 | -14.86416 | 39092 ft | 401 kts | 259° |
| 2026-04-27 22:55 | 27.93984 | -14.92537 | 39092 ft | 401 kts | 259° |
| 2026-04-27 22:56 | 27.92660 | -14.98616 | 39084 ft | 401 kts | 259° |
| 2026-04-27 22:56 | 27.91323 | -15.04742 | 38994 ft | 400 kts | 259° |
| 2026-04-27 22:56 | 27.90653 | -15.07807 | 38099 ft | 404 kts | 259° |
| 2026-04-27 22:57 | 27.89974 | -15.10911 | 37200 ft | 408 kts | 259° |
| 2026-04-27 22:57 | 27.89290 | -15.14028 | 36460 ft | 409 kts | 259° |
| 2026-04-27 22:57 | 27.88607 | -15.17144 | 35780 ft | 408 kts | 259° |
| 2026-04-27 22:57 | 27.87922 | -15.20262 | 35050 ft | 409 kts | 259° |
| 2026-04-27 22:58 | 27.87244 | -15.23345 | 34286 ft | 411 kts | 260° |
| 2026-04-27 22:58 | 27.86553 | -15.26483 | 33429 ft | 413 kts | 260° |
| 2026-04-27 22:58 | 27.85858 | -15.29635 | 32581 ft | 414 kts | 260° |
| 2026-04-27 22:58 | 27.85161 | -15.32792 | 31793 ft | 414 kts | 260° |
| 2026-04-27 22:59 | 27.84464 | -15.35950 | 30997 ft | 415 kts | 260° |
| 2026-04-27 22:59 | 27.83762 | -15.39123 | 30163 ft | 417 kts | 260° |
| 2026-04-27 22:59 | 27.83120 | -15.42317 | 29287 ft | 414 kts | 266° |
| 2026-04-27 22:59 | 27.83150 | -15.45535 | 28592 ft | 407 kts | 277° |
| 2026-04-27 23:00 | 27.83627 | -15.51761 | 27533 ft | 396 kts | 277° |
| 2026-04-27 23:00 | 27.83880 | -15.54847 | 26937 ft | 393 kts | 277° |
| 2026-04-27 23:00 | 27.84141 | -15.57920 | 26351 ft | 392 kts | 277° |
| 2026-04-27 23:01 | 27.84404 | -15.60974 | 25745 ft | 390 kts | 277° |
| 2026-04-27 23:01 | 27.84667 | -15.64016 | 25178 ft | 388 kts | 277° |
| 2026-04-27 23:01 | 27.84930 | -15.67056 | 24573 ft | 391 kts | 277° |
| 2026-04-27 23:01 | 27.85194 | -15.70120 | 23990 ft | 393 kts | 277° |
| 2026-04-27 23:02 | 27.85455 | -15.73164 | 23360 ft | 396 kts | 277° |
| 2026-04-27 23:02 | 27.85720 | -15.76261 | 22714 ft | 396 kts | 277° |
| 2026-04-27 23:02 | 27.85984 | -15.79351 | 22125 ft | 395 kts | 277° |
| 2026-04-27 23:02 | 27.86247 | -15.82435 | 21565 ft | 393 kts | 277° |
| 2026-04-27 23:03 | 27.86507 | -15.85502 | 20968 ft | 391 kts | 277° |
| 2026-04-27 23:03 | 27.86767 | -15.88567 | 20344 ft | 391 kts | 277° |
| 2026-04-27 23:03 | 27.87025 | -15.91618 | 19830 ft | 389 kts | 276° |
| 2026-04-27 23:03 | 27.87281 | -15.94655 | 19297 ft | 388 kts | 276° |
| 2026-04-27 23:04 | 27.87536 | -15.97685 | 18764 ft | 387 kts | 276° |
| 2026-04-27 23:04 | 27.87786 | -16.00670 | 18211 ft | 386 kts | 277° |
| 2026-04-27 23:04 | 27.88039 | -16.03688 | 17641 ft | 384 kts | 277° |
| 2026-04-27 23:04 | 27.88289 | -16.06686 | 17102 ft | 382 kts | 277° |
| 2026-04-27 23:05 | 27.88535 | -16.09640 | 16851 ft | 372 kts | 277° |
| 2026-04-27 23:05 | 27.88774 | -16.12520 | 16601 ft | 363 kts | 276° |
| 2026-04-27 23:05 | 27.89006 | -16.15322 | 16402 ft | 353 kts | 277° |
| 2026-04-27 23:05 | 27.89231 | -16.18046 | 16218 ft | 344 kts | 277° |
| 2026-04-27 23:06 | 27.89452 | -16.20721 | 15809 ft | 342 kts | 277° |
| 2026-04-27 23:06 | 27.89672 | -16.23390 | 15479 ft | 351 kts | 277° |
| 2026-04-27 23:06 | 27.89861 | -16.26153 | 15117 ft | 353 kts | 275° |
| 2026-04-27 23:06 | 27.90041 | -16.28916 | 14687 ft | 351 kts | 276° |
| 2026-04-27 23:07 | 27.90218 | -16.31666 | 14265 ft | 350 kts | 276° |
| 2026-04-27 23:07 | 27.90391 | -16.34403 | 13840 ft | 348 kts | 276° |
| 2026-04-27 23:07 | 27.90564 | -16.37128 | 13265 ft | 349 kts | 275° |
| 2026-04-27 23:07 | 27.90739 | -16.39888 | 12523 ft | 355 kts | 276° |
| 2026-04-27 23:08 | 27.90917 | -16.42693 | 11793 ft | 360 kts | 276° |
| 2026-04-27 23:08 | 27.91095 | -16.45537 | 11072 ft | 365 kts | 275° |
| 2026-04-27 23:08 | 27.91274 | -16.48380 | 10369 ft | 370 kts | 275° |
| 2026-04-27 23:08 | 27.91454 | -16.51269 | 9616 ft | 365 kts | 275° |
| 2026-04-27 23:09 | 27.91629 | -16.54094 | 8875 ft | 356 kts | 276° |
| 2026-04-27 23:09 | 27.91800 | -16.56851 | 8162 ft | 348 kts | 275° |
| 2026-04-27 23:09 | 27.91966 | -16.59552 | 7473 ft | 341 kts | 276° |
| 2026-04-27 23:09 | 27.92129 | -16.62196 | 6813 ft | 335 kts | 277° |
| 2026-04-27 23:10 | 27.92289 | -16.64799 | 6151 ft | 329 kts | 276° |
| 2026-04-27 23:10 | 27.92446 | -16.67358 | 5485 ft | 323 kts | 276° |
| 2026-04-27 23:10 | 27.92597 | -16.69835 | 4899 ft | 316 kts | 275° |
| 2026-04-27 23:10 | 27.92744 | -16.72262 | 4515 ft | 302 kts | 275° |
| 2026-04-27 23:11 | 27.92884 | -16.74555 | 4274 ft | 286 kts | 275° |
| 2026-04-27 23:11 | 27.93017 | -16.76754 | 3928 ft | 275 kts | 275° |
| 2026-04-27 23:11 | 27.93244 | -16.78850 | 3600 ft | 262 kts | 291° |
| 2026-04-27 23:11 | 27.94176 | -16.80506 | 3315 ft | 244 kts | 320° |
| 2026-04-27 23:12 | 27.95672 | -16.81291 | 2896 ft | 234 kts | 356° |
| 2026-04-27 23:12 | 27.97170 | -16.81037 | 3023 ft | 210 kts | 25° |
| 2026-04-27 23:12 | 27.98226 | -16.80044 | 3034 ft | 197 kts | 56° |
| 2026-04-27 23:12 | 27.98616 | -16.78613 | 2975 ft | 191 kts | 86° |
| 2026-04-27 23:13 | 27.98608 | -16.77105 | 3016 ft | 193 kts | 86° |
| 2026-04-27 23:13 | 27.98684 | -16.75593 | 3047 ft | 193 kts | 82° |
| 2026-04-27 23:13 | 27.98862 | -16.74091 | 2922 ft | 193 kts | 77° |
| 2026-04-27 23:13 | 27.99161 | -16.72648 | 2741 ft | 184 kts | 69° |
| 2026-04-27 23:14 | 27.99573 | -16.71293 | 2503 ft | 181 kts | 66° |
| 2026-04-27 23:14 | 28.00022 | -16.69982 | 2274 ft | 177 kts | 65° |
| 2026-04-27 23:14 | 28.00474 | -16.68691 | 2024 ft | 175 kts | 67° |
| 2026-04-27 23:14 | 28.00905 | -16.67447 | 1809 ft | 170 kts | 66° |
| 2026-04-27 23:15 | 28.01333 | -16.66214 | 1598 ft | 167 kts | 67° |
| 2026-04-27 23:15 | 28.01743 | -16.65029 | 1397 ft | 159 kts | 68° |
| 2026-04-27 23:15 | 28.02131 | -16.63914 | 1221 ft | 147 kts | 67° |
| 2026-04-27 23:15 | 28.02499 | -16.62833 | 985 ft | 147 kts | 69° |
| 2026-04-27 23:16 | 28.02860 | -16.61755 | 768 ft | 147 kts | 68° |
| 2026-04-27 23:16 | 28.03246 | -16.60673 | 595 ft | 148 kts | 65° |
| 2026-04-27 23:16 | 28.03635 | -16.59578 | 396 ft | 152 kts | 65° |
| 2026-04-27 23:16 | 28.04016 | -16.58466 | 234 ft | 153 kts | 65° |
| 2026-04-27 23:17 | 28.04380 | -16.57446 | 208 ft | 116 kts | 68° |
| 2026-04-27 23:17 | 28.04577 | -16.56879 | 209 ft | 48 kts | 68° |
| 2026-04-27 23:17 | 28.04651 | -16.56670 | 215 ft | 26 kts | 68° |
| 2026-04-27 23:17 | 28.04759 | -16.56507 | 210 ft | 27 kts | 43° |
| 2026-04-27 23:18 | 28.04875 | -16.56387 | 212 ft | 17 kts | 41° |
| 2026-04-27 23:18 | 28.04912 | -16.56374 | 212 ft | 2 kts | 333° |
| 2026-04-27 23:18 | 28.04924 | -16.56392 | 218 ft | 4 kts | 278° |
| 2026-04-27 23:18 | 28.04916 | -16.56450 | 211 ft | 11 kts | 255° |
| 2026-04-27 23:19 | 28.04882 | -16.56557 | 211 ft | 18 kts | 250° |
| 2026-04-27 23:19 | 28.04829 | -16.56711 | 211 ft | 24 kts | 248° |
| 2026-04-27 23:19 | 28.04760 | -16.56908 | 213 ft | 29 kts | 248° |
| 2026-04-27 23:19 | 28.04694 | -16.57104 | 210 ft | 20 kts | 261° |
| 2026-04-27 23:20 | 28.04781 | -16.57206 | 216 ft | 19 kts | 291° |
| 2026-04-27 23:20 | 28.04747 | -16.57350 | 205 ft | 20 kts | 239° |
| 2026-04-27 23:20 | 28.04693 | -16.57484 | 215 ft | 13 kts | 247° |
| 2026-04-27 23:20 | 28.04689 | -16.57555 | 204 ft | 0 kts | 309° |
| 2026-04-27 23:21 | 28.04693 | -16.57557 | 204 ft | 1 kts | 337° |
| 2026-04-27 23:21 | 28.04723 | -16.57567 | 204 ft | 8 kts | 342° |
| 2026-04-27 23:21 | 28.04740 | -16.57574 | 206 ft | 0 kts | 342° |